sensor_id;sensor_type;location;lat;lon;timestamp;P1;durP1;ratioP1;P2;durP2;ratioP2
45114;SDS011;30877;43.706;10.780;2024-01-10T00:02:21;7.85;;;3.95;;
45114;SDS011;30877;43.706;10.780;2024-01-10T00:04:55;7.28;;;4.60;;
45114;SDS011;30877;43.706;10.780;2024-01-10T00:07:26;7.30;;;4.07;;
45114;SDS011;30877;43.706;10.780;2024-01-10T00:09:55;6.10;;;4.57;;
45114;SDS011;30877;43.706;10.780;2024-01-10T00:12:25;6.80;;;4.28;;
45114;SDS011;30877;43.706;10.780;2024-01-10T00:14:53;8.70;;;5.65;;
45114;SDS011;30877;43.706;10.780;2024-01-10T00:17:22;5.40;;;3.92;;
45114;SDS011;30877;43.706;10.780;2024-01-10T00:19:51;8.60;;;4.70;;
45114;SDS011;30877;43.706;10.780;2024-01-10T00:22:20;7.00;;;4.03;;
45114;SDS011;30877;43.706;10.780;2024-01-10T00:24:51;7.72;;;4.32;;
45114;SDS011;30877;43.706;10.780;2024-01-10T00:27:20;7.80;;;4.15;;
45114;SDS011;30877;43.706;10.780;2024-01-10T00:29:49;7.65;;;3.83;;
45114;SDS011;30877;43.706;10.780;2024-01-10T00:32:19;7.82;;;4.50;;
45114;SDS011;30877;43.706;10.780;2024-01-10T00:34:49;6.28;;;3.90;;
45114;SDS011;30877;43.706;10.780;2024-01-10T00:37:17;5.57;;;3.67;;
45114;SDS011;30877;43.706;10.780;2024-01-10T00:39:47;5.75;;;3.75;;
45114;SDS011;30877;43.706;10.780;2024-01-10T00:42:18;4.75;;;3.30;;
45114;SDS011;30877;43.706;10.780;2024-01-10T00:44:47;4.88;;;3.53;;
45114;SDS011;30877;43.706;10.780;2024-01-10T00:47:15;6.45;;;4.03;;
45114;SDS011;30877;43.706;10.780;2024-01-10T00:49:44;5.38;;;3.35;;
45114;SDS011;30877;43.706;10.780;2024-01-10T00:52:12;6.93;;;3.60;;
45114;SDS011;30877;43.706;10.780;2024-01-10T00:54:41;5.97;;;3.65;;
45114;SDS011;30877;43.706;10.780;2024-01-10T00:57:11;5.97;;;3.45;;
45114;SDS011;30877;43.706;10.780;2024-01-10T00:59:41;6.50;;;3.47;;
45114;SDS011;30877;43.706;10.780;2024-01-10T01:02:10;6.60;;;3.63;;
45114;SDS011;30877;43.706;10.780;2024-01-10T01:04:39;5.13;;;3.63;;
45114;SDS011;30877;43.706;10.780;2024-01-10T01:07:07;5.05;;;3.28;;
45114;SDS011;30877;43.706;10.780;2024-01-10T01:09:35;4.50;;;3.20;;
45114;SDS011;30877;43.706;10.780;2024-01-10T01:12:04;5.05;;;3.42;;
45114;SDS011;30877;43.706;10.780;2024-01-10T01:14:32;5.43;;;3.50;;
45114;SDS011;30877;43.706;10.780;2024-01-10T01:17:02;6.82;;;4.10;;
45114;SDS011;30877;43.706;10.780;2024-01-10T01:19:31;5.40;;;3.78;;
45114;SDS011;30877;43.706;10.780;2024-01-10T01:22:00;5.53;;;3.10;;
45114;SDS011;30877;43.706;10.780;2024-01-10T01:24:28;8.70;;;3.78;;
45114;SDS011;30877;43.706;10.780;2024-01-10T01:26:57;5.43;;;3.00;;
45114;SDS011;30877;43.706;10.780;2024-01-10T01:29:25;6.13;;;3.75;;
45114;SDS011;30877;43.706;10.780;2024-01-10T01:31:54;5.20;;;3.20;;
45114;SDS011;30877;43.706;10.780;2024-01-10T01:34:25;6.30;;;3.47;;
45114;SDS011;30877;43.706;10.780;2024-01-10T01:36:53;5.70;;;3.17;;
45114;SDS011;30877;43.706;10.780;2024-01-10T01:39:21;8.07;;;3.83;;
45114;SDS011;30877;43.706;10.780;2024-01-10T01:41:51;5.68;;;3.85;;
45114;SDS011;30877;43.706;10.780;2024-01-10T01:44:19;6.35;;;4.43;;
45114;SDS011;30877;43.706;10.780;2024-01-10T01:46:49;7.53;;;4.90;;
45114;SDS011;30877;43.706;10.780;2024-01-10T01:49:17;8.30;;;5.55;;
45114;SDS011;30877;43.706;10.780;2024-01-10T01:51:51;7.95;;;5.35;;
45114;SDS011;30877;43.706;10.780;2024-01-10T01:54:21;10.02;;;5.65;;
45114;SDS011;30877;43.706;10.780;2024-01-10T01:56:50;6.68;;;5.03;;
45114;SDS011;30877;43.706;10.780;2024-01-10T01:59:19;7.68;;;5.03;;
45114;SDS011;30877;43.706;10.780;2024-01-10T02:01:50;7.30;;;4.45;;
45114;SDS011;30877;43.706;10.780;2024-01-10T02:04:20;5.93;;;4.25;;
45114;SDS011;30877;43.706;10.780;2024-01-10T02:06:50;5.57;;;3.90;;
45114;SDS011;30877;43.706;10.780;2024-01-10T02:09:19;6.82;;;4.10;;
45114;SDS011;30877;43.706;10.780;2024-01-10T02:11:53;6.32;;;3.53;;
45114;SDS011;30877;43.706;10.780;2024-01-10T02:14:23;5.00;;;3.72;;
45114;SDS011;30877;43.706;10.780;2024-01-10T02:16:52;7.45;;;3.47;;
45114;SDS011;30877;43.706;10.780;2024-01-10T02:19:23;6.07;;;3.65;;
45114;SDS011;30877;43.706;10.780;2024-01-10T02:25:06;5.47;;;3.45;;
45114;SDS011;30877;43.706;10.780;2024-01-10T02:34:21;7.80;;;4.10;;
45114;SDS011;30877;43.706;10.780;2024-01-10T02:36:50;5.10;;;3.33;;
45114;SDS011;30877;43.706;10.780;2024-01-10T02:39:24;5.03;;;3.30;;
45114;SDS011;30877;43.706;10.780;2024-01-10T02:41:55;4.72;;;3.47;;
45114;SDS011;30877;43.706;10.780;2024-01-10T02:51:12;4.93;;;2.95;;
45114;SDS011;30877;43.706;10.780;2024-01-10T02:56:59;5.25;;;3.13;;
45114;SDS011;30877;43.706;10.780;2024-01-10T02:59:30;7.30;;;3.67;;
45114;SDS011;30877;43.706;10.780;2024-01-10T03:02:02;5.03;;;3.53;;
45114;SDS011;30877;43.706;10.780;2024-01-10T03:04:54;4.57;;;2.97;;
45114;SDS011;30877;43.706;10.780;2024-01-10T03:07:22;6.72;;;3.10;;
45114;SDS011;30877;43.706;10.780;2024-01-10T03:09:52;4.70;;;3.10;;
45114;SDS011;30877;43.706;10.780;2024-01-10T03:12:23;6.72;;;3.45;;
45114;SDS011;30877;43.706;10.780;2024-01-10T03:15:30;5.95;;;3.60;;
45114;SDS011;30877;43.706;10.780;2024-01-10T03:18:26;5.82;;;2.95;;
45114;SDS011;30877;43.706;10.780;2024-01-10T03:21:03;4.65;;;2.97;;
45114;SDS011;30877;43.706;10.780;2024-01-10T03:23:32;4.90;;;2.63;;
45114;SDS011;30877;43.706;10.780;2024-01-10T03:29:26;4.75;;;2.92;;
45114;SDS011;30877;43.706;10.780;2024-01-10T03:35:55;5.72;;;3.00;;
45114;SDS011;30877;43.706;10.780;2024-01-10T03:38:23;6.72;;;3.45;;
45114;SDS011;30877;43.706;10.780;2024-01-10T03:40:55;4.82;;;2.95;;
45114;SDS011;30877;43.706;10.780;2024-01-10T03:47:39;5.53;;;3.08;;
45114;SDS011;30877;43.706;10.780;2024-01-10T03:50:08;5.65;;;3.20;;
45114;SDS011;30877;43.706;10.780;2024-01-10T03:52:43;4.18;;;3.00;;
45114;SDS011;30877;43.706;10.780;2024-01-10T03:55:26;5.00;;;3.10;;
45114;SDS011;30877;43.706;10.780;2024-01-10T03:57:54;7.15;;;2.97;;
45114;SDS011;30877;43.706;10.780;2024-01-10T04:00:24;5.00;;;2.70;;
45114;SDS011;30877;43.706;10.780;2024-01-10T04:02:55;6.72;;;2.97;;
45114;SDS011;30877;43.706;10.780;2024-01-10T04:06:24;4.65;;;2.80;;
45114;SDS011;30877;43.706;10.780;2024-01-10T04:08:56;5.60;;;2.97;;
45114;SDS011;30877;43.706;10.780;2024-01-10T04:11:28;4.03;;;2.60;;
45114;SDS011;30877;43.706;10.780;2024-01-10T04:14:21;5.20;;;3.13;;
45114;SDS011;30877;43.706;10.780;2024-01-10T04:16:49;4.95;;;2.47;;
45114;SDS011;30877;43.706;10.780;2024-01-10T04:19:22;6.68;;;3.05;;
45114;SDS011;30877;43.706;10.780;2024-01-10T04:24:57;4.93;;;3.10;;
45114;SDS011;30877;43.706;10.780;2024-01-10T04:28:13;6.68;;;3.25;;
45114;SDS011;30877;43.706;10.780;2024-01-10T04:31:34;4.45;;;2.85;;
45114;SDS011;30877;43.706;10.780;2024-01-10T04:38:05;7.32;;;3.92;;
45114;SDS011;30877;43.706;10.780;2024-01-10T04:40:37;5.90;;;3.53;;
45114;SDS011;30877;43.706;10.780;2024-01-10T04:43:06;5.72;;;3.40;;
45114;SDS011;30877;43.706;10.780;2024-01-10T04:45:35;7.38;;;3.60;;
45114;SDS011;30877;43.706;10.780;2024-01-10T04:48:06;7.07;;;4.28;;
45114;SDS011;30877;43.706;10.780;2024-01-10T04:51:17;5.55;;;3.45;;
45114;SDS011;30877;43.706;10.780;2024-01-10T04:53:45;10.80;;;5.82;;
45114;SDS011;30877;43.706;10.780;2024-01-10T04:56:18;8.82;;;4.35;;
45114;SDS011;30877;43.706;10.780;2024-01-10T05:03:21;9.88;;;4.82;;
45114;SDS011;30877;43.706;10.780;2024-01-10T05:05:56;7.57;;;5.00;;
45114;SDS011;30877;43.706;10.780;2024-01-10T05:08:36;7.63;;;4.57;;
45114;SDS011;30877;43.706;10.780;2024-01-10T05:11:25;7.10;;;4.68;;
45114;SDS011;30877;43.706;10.780;2024-01-10T05:13:54;6.85;;;4.30;;
45114;SDS011;30877;43.706;10.780;2024-01-10T05:16:23;6.03;;;4.00;;
45114;SDS011;30877;43.706;10.780;2024-01-10T05:22:56;5.95;;;4.05;;
45114;SDS011;30877;43.706;10.780;2024-01-10T05:26:02;7.50;;;4.15;;
45114;SDS011;30877;43.706;10.780;2024-01-10T05:28:31;7.85;;;4.00;;
45114;SDS011;30877;43.706;10.780;2024-01-10T05:31:38;5.10;;;3.65;;
45114;SDS011;30877;43.706;10.780;2024-01-10T05:39:26;6.90;;;3.38;;
45114;SDS011;30877;43.706;10.780;2024-01-10T05:42:08;6.60;;;3.60;;
45114;SDS011;30877;43.706;10.780;2024-01-10T05:44:37;5.82;;;3.42;;
45114;SDS011;30877;43.706;10.780;2024-01-10T05:47:11;4.85;;;3.20;;
45114;SDS011;30877;43.706;10.780;2024-01-10T05:50:00;9.13;;;3.38;;
45114;SDS011;30877;43.706;10.780;2024-01-10T05:52:30;5.68;;;3.45;;
45114;SDS011;30877;43.706;10.780;2024-01-10T05:55:04;4.97;;;3.20;;
45114;SDS011;30877;43.706;10.780;2024-01-10T05:57:37;6.05;;;3.55;;
45114;SDS011;30877;43.706;10.780;2024-01-10T06:00:06;4.90;;;3.17;;
45114;SDS011;30877;43.706;10.780;2024-01-10T06:03:02;4.43;;;3.17;;
45114;SDS011;30877;43.706;10.780;2024-01-10T06:05:40;5.68;;;3.55;;
45114;SDS011;30877;43.706;10.780;2024-01-10T06:08:10;7.97;;;3.88;;
45114;SDS011;30877;43.706;10.780;2024-01-10T06:10:39;7.40;;;3.78;;
45114;SDS011;30877;43.706;10.780;2024-01-10T06:13:09;7.28;;;3.95;;
45114;SDS011;30877;43.706;10.780;2024-01-10T06:15:38;5.50;;;3.60;;
45114;SDS011;30877;43.706;10.780;2024-01-10T06:18:06;9.07;;;3.85;;
45114;SDS011;30877;43.706;10.780;2024-01-10T06:20:35;5.07;;;3.30;;
45114;SDS011;30877;43.706;10.780;2024-01-10T06:23:06;6.65;;;3.83;;
45114;SDS011;30877;43.706;10.780;2024-01-10T06:25:38;5.75;;;3.47;;
45114;SDS011;30877;43.706;10.780;2024-01-10T06:28:09;6.40;;;3.65;;
45114;SDS011;30877;43.706;10.780;2024-01-10T06:30:38;5.43;;;3.45;;
45114;SDS011;30877;43.706;10.780;2024-01-10T06:33:07;6.25;;;3.75;;
45114;SDS011;30877;43.706;10.780;2024-01-10T06:35:37;7.45;;;3.75;;
45114;SDS011;30877;43.706;10.780;2024-01-10T06:38:09;8.77;;;3.78;;
45114;SDS011;30877;43.706;10.780;2024-01-10T06:41:07;6.22;;;4.00;;
45114;SDS011;30877;43.706;10.780;2024-01-10T06:43:40;6.07;;;3.90;;
45114;SDS011;30877;43.706;10.780;2024-01-10T06:46:09;4.93;;;3.20;;
45114;SDS011;30877;43.706;10.780;2024-01-10T06:49:21;5.85;;;3.92;;
45114;SDS011;30877;43.706;10.780;2024-01-10T06:51:56;10.45;;;4.97;;
45114;SDS011;30877;43.706;10.780;2024-01-10T06:54:28;12.80;;;7.38;;
45114;SDS011;30877;43.706;10.780;2024-01-10T06:56:57;16.55;;;9.70;;
45114;SDS011;30877;43.706;10.780;2024-01-10T07:02:39;11.90;;;7.47;;
45114;SDS011;30877;43.706;10.780;2024-01-10T07:05:10;11.27;;;6.53;;
45114;SDS011;30877;43.706;10.780;2024-01-10T07:07:40;8.13;;;4.50;;
45114;SDS011;30877;43.706;10.780;2024-01-10T07:11:12;7.53;;;4.15;;
45114;SDS011;30877;43.706;10.780;2024-01-10T07:14:41;9.20;;;5.28;;
45114;SDS011;30877;43.706;10.780;2024-01-10T07:21:32;7.43;;;4.80;;
45114;SDS011;30877;43.706;10.780;2024-01-10T07:24:58;9.35;;;5.15;;
45114;SDS011;30877;43.706;10.780;2024-01-10T07:27:27;7.95;;;4.38;;
45114;SDS011;30877;43.706;10.780;2024-01-10T07:29:56;8.02;;;4.30;;
45114;SDS011;30877;43.706;10.780;2024-01-10T07:40:11;7.20;;;4.00;;
45114;SDS011;30877;43.706;10.780;2024-01-10T07:43:13;6.22;;;3.95;;
45114;SDS011;30877;43.706;10.780;2024-01-10T07:49:30;6.95;;;3.60;;
45114;SDS011;30877;43.706;10.780;2024-01-10T07:52:08;7.03;;;3.97;;
45114;SDS011;30877;43.706;10.780;2024-01-10T07:54:52;5.50;;;3.55;;
45114;SDS011;30877;43.706;10.780;2024-01-10T07:57:23;6.40;;;3.17;;
45114;SDS011;30877;43.706;10.780;2024-01-10T08:00:52;6.18;;;3.75;;
45114;SDS011;30877;43.706;10.780;2024-01-10T08:03:21;6.93;;;3.38;;
45114;SDS011;30877;43.706;10.780;2024-01-10T08:05:50;7.72;;;3.72;;
45114;SDS011;30877;43.706;10.780;2024-01-10T08:08:29;6.72;;;4.13;;
45114;SDS011;30877;43.706;10.780;2024-01-10T08:11:52;5.97;;;4.00;;
45114;SDS011;30877;43.706;10.780;2024-01-10T08:17:11;6.57;;;4.10;;
45114;SDS011;30877;43.706;10.780;2024-01-10T08:19:41;8.73;;;4.45;;
45114;SDS011;30877;43.706;10.780;2024-01-10T08:22:14;6.95;;;4.68;;
45114;SDS011;30877;43.706;10.780;2024-01-10T08:24:49;8.70;;;4.47;;
45114;SDS011;30877;43.706;10.780;2024-01-10T08:27:30;7.07;;;3.85;;
45114;SDS011;30877;43.706;10.780;2024-01-10T08:30:23;5.85;;;3.63;;
45114;SDS011;30877;43.706;10.780;2024-01-10T08:32:55;6.18;;;3.88;;
45114;SDS011;30877;43.706;10.780;2024-01-10T08:35:39;7.47;;;3.88;;
45114;SDS011;30877;43.706;10.780;2024-01-10T08:38:19;7.10;;;4.10;;
45114;SDS011;30877;43.706;10.780;2024-01-10T08:40:56;5.47;;;3.75;;
45114;SDS011;30877;43.706;10.780;2024-01-10T08:44:01;6.10;;;3.53;;
45114;SDS011;30877;43.706;10.780;2024-01-10T08:46:50;5.72;;;3.80;;
45114;SDS011;30877;43.706;10.780;2024-01-10T08:49:21;4.75;;;3.13;;
45114;SDS011;30877;43.706;10.780;2024-01-10T08:51:50;5.85;;;3.80;;
45114;SDS011;30877;43.706;10.780;2024-01-10T08:54:21;7.95;;;3.53;;
45114;SDS011;30877;43.706;10.780;2024-01-10T08:57:11;7.50;;;3.88;;
45114;SDS011;30877;43.706;10.780;2024-01-10T08:59:41;4.40;;;3.28;;
45114;SDS011;30877;43.706;10.780;2024-01-10T09:02:10;8.90;;;4.00;;
45114;SDS011;30877;43.706;10.780;2024-01-10T09:04:59;6.68;;;4.07;;
45114;SDS011;30877;43.706;10.780;2024-01-10T09:07:29;9.15;;;4.38;;
45114;SDS011;30877;43.706;10.780;2024-01-10T09:09:58;6.72;;;3.67;;
45114;SDS011;30877;43.706;10.780;2024-01-10T09:12:37;7.20;;;4.03;;
45114;SDS011;30877;43.706;10.780;2024-01-10T09:15:07;8.52;;;4.50;;
45114;SDS011;30877;43.706;10.780;2024-01-10T09:18:01;7.82;;;4.38;;
45114;SDS011;30877;43.706;10.780;2024-01-10T09:20:37;8.43;;;3.97;;
45114;SDS011;30877;43.706;10.780;2024-01-10T09:26:15;8.07;;;4.25;;
45114;SDS011;30877;43.706;10.780;2024-01-10T09:28:45;8.00;;;4.63;;
45114;SDS011;30877;43.706;10.780;2024-01-10T09:31:14;10.30;;;5.38;;
45114;SDS011;30877;43.706;10.780;2024-01-10T09:33:43;10.25;;;5.95;;
45114;SDS011;30877;43.706;10.780;2024-01-10T09:36:12;8.90;;;6.15;;
45114;SDS011;30877;43.706;10.780;2024-01-10T09:38:42;10.38;;;6.40;;
45114;SDS011;30877;43.706;10.780;2024-01-10T09:41:14;10.23;;;5.70;;
45114;SDS011;30877;43.706;10.780;2024-01-10T09:43:45;7.78;;;5.65;;
45114;SDS011;30877;43.706;10.780;2024-01-10T09:46:19;9.07;;;6.15;;
45114;SDS011;30877;43.706;10.780;2024-01-10T09:48:48;8.27;;;5.93;;
45114;SDS011;30877;43.706;10.780;2024-01-10T09:51:22;8.02;;;5.38;;
45114;SDS011;30877;43.706;10.780;2024-01-10T09:53:51;7.03;;;4.70;;
45114;SDS011;30877;43.706;10.780;2024-01-10T09:56:23;6.22;;;4.40;;
45114;SDS011;30877;43.706;10.780;2024-01-10T09:58:53;6.00;;;4.20;;
45114;SDS011;30877;43.706;10.780;2024-01-10T10:01:26;4.78;;;3.20;;
45114;SDS011;30877;43.706;10.780;2024-01-10T10:04:46;4.38;;;2.95;;
45114;SDS011;30877;43.706;10.780;2024-01-10T10:07:24;7.93;;;3.72;;
45114;SDS011;30877;43.706;10.780;2024-01-10T10:09:52;4.28;;;3.08;;
45114;SDS011;30877;43.706;10.780;2024-01-10T10:12:26;4.45;;;2.63;;
45114;SDS011;30877;43.706;10.780;2024-01-10T10:15:15;4.90;;;3.17;;
45114;SDS011;30877;43.706;10.780;2024-01-10T10:17:44;3.83;;;2.97;;
45114;SDS011;30877;43.706;10.780;2024-01-10T10:20:20;5.40;;;3.30;;
45114;SDS011;30877;43.706;10.780;2024-01-10T10:22:59;4.78;;;2.90;;
45114;SDS011;30877;43.706;10.780;2024-01-10T10:25:30;4.72;;;2.97;;
45114;SDS011;30877;43.706;10.780;2024-01-10T10:28:04;4.13;;;3.13;;
45114;SDS011;30877;43.706;10.780;2024-01-10T10:30:46;8.63;;;3.15;;
45114;SDS011;30877;43.706;10.780;2024-01-10T10:33:21;4.18;;;2.50;;
45114;SDS011;30877;43.706;10.780;2024-01-10T10:35:52;5.40;;;3.33;;
45114;SDS011;30877;43.706;10.780;2024-01-10T10:38:22;4.35;;;2.70;;
45114;SDS011;30877;43.706;10.780;2024-01-10T10:40:51;6.13;;;3.08;;
45114;SDS011;30877;43.706;10.780;2024-01-10T10:43:21;4.40;;;2.85;;
45114;SDS011;30877;43.706;10.780;2024-01-10T10:45:51;4.93;;;3.05;;
45114;SDS011;30877;43.706;10.780;2024-01-10T10:48:22;3.90;;;2.60;;
45114;SDS011;30877;43.706;10.780;2024-01-10T10:50:54;5.63;;;3.15;;
45114;SDS011;30877;43.706;10.780;2024-01-10T10:53:27;6.47;;;3.75;;
45114;SDS011;30877;43.706;10.780;2024-01-10T10:55:58;4.75;;;2.92;;
45114;SDS011;30877;43.706;10.780;2024-01-10T10:58:28;4.05;;;2.58;;
45114;SDS011;30877;43.706;10.780;2024-01-10T11:01:01;3.80;;;2.60;;
45114;SDS011;30877;43.706;10.780;2024-01-10T11:03:33;5.25;;;2.97;;
45114;SDS011;30877;43.706;10.780;2024-01-10T11:06:04;5.82;;;3.20;;
45114;SDS011;30877;43.706;10.780;2024-01-10T11:08:35;7.20;;;3.95;;
45114;SDS011;30877;43.706;10.780;2024-01-10T11:11:13;6.30;;;3.13;;
45114;SDS011;30877;43.706;10.780;2024-01-10T11:16:50;5.53;;;3.45;;
45114;SDS011;30877;43.706;10.780;2024-01-10T11:23:33;4.38;;;2.92;;
45114;SDS011;30877;43.706;10.780;2024-01-10T11:26:52;5.20;;;2.88;;
45114;SDS011;30877;43.706;10.780;2024-01-10T11:29:37;4.10;;;2.85;;
45114;SDS011;30877;43.706;10.780;2024-01-10T11:32:22;5.03;;;2.67;;
45114;SDS011;30877;43.706;10.780;2024-01-10T11:34:55;5.05;;;2.90;;
45114;SDS011;30877;43.706;10.780;2024-01-10T11:37:28;5.05;;;2.75;;
45114;SDS011;30877;43.706;10.780;2024-01-10T11:44:34;4.78;;;3.05;;
45114;SDS011;30877;43.706;10.780;2024-01-10T11:47:55;5.68;;;3.13;;
45114;SDS011;30877;43.706;10.780;2024-01-10T11:50:57;6.05;;;3.20;;
45114;SDS011;30877;43.706;10.780;2024-01-10T11:53:56;5.95;;;3.25;;
45114;SDS011;30877;43.706;10.780;2024-01-10T11:56:47;4.00;;;3.00;;
45114;SDS011;30877;43.706;10.780;2024-01-10T11:59:16;4.88;;;3.00;;
45114;SDS011;30877;43.706;10.780;2024-01-10T12:07:07;5.78;;;3.35;;
45114;SDS011;30877;43.706;10.780;2024-01-10T12:10:02;6.03;;;3.53;;
45114;SDS011;30877;43.706;10.780;2024-01-10T12:12:31;5.97;;;4.28;;
45114;SDS011;30877;43.706;10.780;2024-01-10T12:15:00;9.07;;;5.78;;
45114;SDS011;30877;43.706;10.780;2024-01-10T12:17:48;6.63;;;4.35;;
45114;SDS011;30877;43.706;10.780;2024-01-10T12:20:20;4.53;;;3.13;;
45114;SDS011;30877;43.706;10.780;2024-01-10T12:22:57;5.13;;;3.40;;
45114;SDS011;30877;43.706;10.780;2024-01-10T12:25:42;5.20;;;3.30;;
45114;SDS011;30877;43.706;10.780;2024-01-10T12:28:15;5.75;;;3.88;;
45114;SDS011;30877;43.706;10.780;2024-01-10T12:30:44;6.55;;;3.97;;
45114;SDS011;30877;43.706;10.780;2024-01-10T12:33:13;6.15;;;3.90;;
45114;SDS011;30877;43.706;10.780;2024-01-10T12:35:45;6.13;;;3.85;;
45114;SDS011;30877;43.706;10.780;2024-01-10T12:39:02;5.90;;;3.55;;
45114;SDS011;30877;43.706;10.780;2024-01-10T12:41:32;6.53;;;4.30;;
45114;SDS011;30877;43.706;10.780;2024-01-10T12:44:12;6.72;;;3.92;;
45114;SDS011;30877;43.706;10.780;2024-01-10T12:46:49;9.32;;;4.35;;
45114;SDS011;30877;43.706;10.780;2024-01-10T12:49:22;5.25;;;3.45;;
45114;SDS011;30877;43.706;10.780;2024-01-10T12:51:51;4.95;;;3.33;;
45114;SDS011;30877;43.706;10.780;2024-01-10T12:55:39;5.25;;;3.40;;
45114;SDS011;30877;43.706;10.780;2024-01-10T12:58:08;5.20;;;3.25;;
45114;SDS011;30877;43.706;10.780;2024-01-10T13:00:38;5.90;;;3.47;;
45114;SDS011;30877;43.706;10.780;2024-01-10T13:03:07;5.63;;;3.30;;
45114;SDS011;30877;43.706;10.780;2024-01-10T13:05:37;4.57;;;3.35;;
45114;SDS011;30877;43.706;10.780;2024-01-10T13:08:06;6.90;;;3.33;;
45114;SDS011;30877;43.706;10.780;2024-01-10T13:10:35;5.35;;;3.20;;
45114;SDS011;30877;43.706;10.780;2024-01-10T13:13:06;4.47;;;3.05;;
45114;SDS011;30877;43.706;10.780;2024-01-10T13:15:35;4.40;;;3.28;;
45114;SDS011;30877;43.706;10.780;2024-01-10T13:18:06;5.32;;;3.92;;
45114;SDS011;30877;43.706;10.780;2024-01-10T13:20:35;9.48;;;3.90;;
45114;SDS011;30877;43.706;10.780;2024-01-10T13:23:07;9.30;;;5.30;;
45114;SDS011;30877;43.706;10.780;2024-01-10T13:25:38;7.65;;;4.35;;
45114;SDS011;30877;43.706;10.780;2024-01-10T13:28:11;7.22;;;4.20;;
45114;SDS011;30877;43.706;10.780;2024-01-10T13:30:40;6.70;;;3.78;;
45114;SDS011;30877;43.706;10.780;2024-01-10T13:33:10;6.78;;;4.45;;
45114;SDS011;30877;43.706;10.780;2024-01-10T13:35:39;6.55;;;4.20;;
45114;SDS011;30877;43.706;10.780;2024-01-10T13:38:11;5.88;;;4.00;;
45114;SDS011;30877;43.706;10.780;2024-01-10T13:40:41;9.10;;;4.80;;
45114;SDS011;30877;43.706;10.780;2024-01-10T13:43:12;7.45;;;4.20;;
45114;SDS011;30877;43.706;10.780;2024-01-10T13:45:41;5.53;;;4.10;;
45114;SDS011;30877;43.706;10.780;2024-01-10T13:48:11;6.63;;;3.10;;
45114;SDS011;30877;43.706;10.780;2024-01-10T13:50:39;5.05;;;3.92;;
45114;SDS011;30877;43.706;10.780;2024-01-10T13:53:09;5.28;;;4.13;;
45114;SDS011;30877;43.706;10.780;2024-01-10T13:59:37;6.00;;;3.67;;
45114;SDS011;30877;43.706;10.780;2024-01-10T14:06:37;7.05;;;3.63;;
45114;SDS011;30877;43.706;10.780;2024-01-10T14:09:06;5.15;;;3.67;;
45114;SDS011;30877;43.706;10.780;2024-01-10T14:11:40;4.97;;;3.58;;
45114;SDS011;30877;43.706;10.780;2024-01-10T14:14:11;3.95;;;3.25;;
45114;SDS011;30877;43.706;10.780;2024-01-10T14:16:42;4.88;;;3.28;;
45114;SDS011;30877;43.706;10.780;2024-01-10T14:19:11;5.35;;;3.30;;
45114;SDS011;30877;43.706;10.780;2024-01-10T14:21:40;5.45;;;3.35;;
45114;SDS011;30877;43.706;10.780;2024-01-10T14:24:11;7.22;;;3.15;;
45114;SDS011;30877;43.706;10.780;2024-01-10T14:26:41;5.88;;;3.30;;
45114;SDS011;30877;43.706;10.780;2024-01-10T14:29:11;6.00;;;3.05;;
45114;SDS011;30877;43.706;10.780;2024-01-10T14:31:39;5.03;;;3.38;;
45114;SDS011;30877;43.706;10.780;2024-01-10T14:36:46;4.22;;;3.13;;
45114;SDS011;30877;43.706;10.780;2024-01-10T14:39:17;7.47;;;4.05;;
45114;SDS011;30877;43.706;10.780;2024-01-10T14:41:46;9.82;;;6.90;;
45114;SDS011;30877;43.706;10.780;2024-01-10T14:44:14;5.43;;;3.55;;
45114;SDS011;30877;43.706;10.780;2024-01-10T14:46:46;3.92;;;3.03;;
45114;SDS011;30877;43.706;10.780;2024-01-10T14:49:29;5.03;;;3.35;;
45114;SDS011;30877;43.706;10.780;2024-01-10T14:51:59;5.63;;;3.42;;
45114;SDS011;30877;43.706;10.780;2024-01-10T14:54:28;4.80;;;3.42;;
45114;SDS011;30877;43.706;10.780;2024-01-10T14:57:01;5.32;;;3.33;;
45114;SDS011;30877;43.706;10.780;2024-01-10T14:59:32;5.00;;;3.47;;
45114;SDS011;30877;43.706;10.780;2024-01-10T15:02:13;7.30;;;4.63;;
45114;SDS011;30877;43.706;10.780;2024-01-10T15:04:42;6.80;;;4.30;;
45114;SDS011;30877;43.706;10.780;2024-01-10T15:07:11;9.43;;;5.75;;
45114;SDS011;30877;43.706;10.780;2024-01-10T15:09:42;5.35;;;4.20;;
45114;SDS011;30877;43.706;10.780;2024-01-10T15:12:11;7.20;;;4.88;;
45114;SDS011;30877;43.706;10.780;2024-01-10T15:14:40;5.82;;;4.00;;
45114;SDS011;30877;43.706;10.780;2024-01-10T15:17:09;7.65;;;4.93;;
45114;SDS011;30877;43.706;10.780;2024-01-10T15:19:42;7.75;;;5.63;;
45114;SDS011;30877;43.706;10.780;2024-01-10T15:22:12;8.50;;;4.93;;
45114;SDS011;30877;43.706;10.780;2024-01-10T15:24:42;9.23;;;4.93;;
45114;SDS011;30877;43.706;10.780;2024-01-10T15:27:11;8.35;;;5.25;;
45114;SDS011;30877;43.706;10.780;2024-01-10T15:29:40;6.00;;;4.00;;
45114;SDS011;30877;43.706;10.780;2024-01-10T15:32:15;5.65;;;4.20;;
45114;SDS011;30877;43.706;10.780;2024-01-10T15:34:47;6.43;;;4.15;;
45114;SDS011;30877;43.706;10.780;2024-01-10T15:37:15;4.97;;;3.65;;
45114;SDS011;30877;43.706;10.780;2024-01-10T15:39:45;7.45;;;5.50;;
45114;SDS011;30877;43.706;10.780;2024-01-10T15:42:13;8.15;;;4.47;;
45114;SDS011;30877;43.706;10.780;2024-01-10T15:44:43;8.55;;;5.03;;
45114;SDS011;30877;43.706;10.780;2024-01-10T15:47:31;9.23;;;5.13;;
45114;SDS011;30877;43.706;10.780;2024-01-10T15:50:02;8.68;;;5.25;;
45114;SDS011;30877;43.706;10.780;2024-01-10T15:52:32;9.13;;;5.22;;
45114;SDS011;30877;43.706;10.780;2024-01-10T15:55:18;6.82;;;4.82;;
45114;SDS011;30877;43.706;10.780;2024-01-10T15:57:47;10.60;;;6.28;;
45114;SDS011;30877;43.706;10.780;2024-01-10T16:00:16;7.85;;;5.20;;
45114;SDS011;30877;43.706;10.780;2024-01-10T16:02:45;8.10;;;5.22;;
45114;SDS011;30877;43.706;10.780;2024-01-10T16:05:18;8.45;;;5.10;;
45114;SDS011;30877;43.706;10.780;2024-01-10T16:14:53;9.38;;;5.90;;
45114;SDS011;30877;43.706;10.780;2024-01-10T16:17:26;8.75;;;5.82;;
45114;SDS011;30877;43.706;10.780;2024-01-10T16:19:59;9.10;;;6.00;;
45114;SDS011;30877;43.706;10.780;2024-01-10T16:23:03;8.20;;;5.55;;
45114;SDS011;30877;43.706;10.780;2024-01-10T16:27:03;9.07;;;5.85;;
45114;SDS011;30877;43.706;10.780;2024-01-10T16:33:25;7.72;;;5.40;;
45114;SDS011;30877;43.706;10.780;2024-01-10T16:35:55;7.13;;;5.40;;
45114;SDS011;30877;43.706;10.780;2024-01-10T16:38:51;6.90;;;5.20;;
45114;SDS011;30877;43.706;10.780;2024-01-10T16:41:33;6.43;;;4.65;;
45114;SDS011;30877;43.706;10.780;2024-01-10T16:44:48;7.15;;;4.72;;
45114;SDS011;30877;43.706;10.780;2024-01-10T16:47:20;8.27;;;5.13;;
45114;SDS011;30877;43.706;10.780;2024-01-10T16:49:56;7.43;;;5.10;;
45114;SDS011;30877;43.706;10.780;2024-01-10T16:52:29;7.43;;;4.85;;
45114;SDS011;30877;43.706;10.780;2024-01-10T16:55:00;8.82;;;5.78;;
45114;SDS011;30877;43.706;10.780;2024-01-10T16:57:33;9.38;;;5.60;;
45114;SDS011;30877;43.706;10.780;2024-01-10T17:00:42;9.32;;;5.40;;
45114;SDS011;30877;43.706;10.780;2024-01-10T17:03:26;8.18;;;5.38;;
45114;SDS011;30877;43.706;10.780;2024-01-10T17:06:49;8.05;;;5.97;;
45114;SDS011;30877;43.706;10.780;2024-01-10T17:09:38;6.85;;;5.25;;
45114;SDS011;30877;43.706;10.780;2024-01-10T17:20:21;6.18;;;4.45;;
45114;SDS011;30877;43.706;10.780;2024-01-10T17:22:54;7.35;;;4.65;;
45114;SDS011;30877;43.706;10.780;2024-01-10T17:25:23;7.75;;;4.57;;
45114;SDS011;30877;43.706;10.780;2024-01-10T17:27:58;8.50;;;5.43;;
45114;SDS011;30877;43.706;10.780;2024-01-10T17:33:30;8.93;;;5.20;;